createdAt,value
2023-01-19T00:01:57.606Z,99378.38
2023-01-19T00:04:27.018Z,99377.72
2023-01-19T00:07:03.193Z,99383.22
2023-01-19T00:09:36.039Z,99378.56
2023-01-19T00:12:09.656Z,99366.66
2023-01-19T00:14:36.535Z,99373.63
2023-01-19T00:17:06.158Z,99368.13
2023-01-19T00:19:37.373Z,99366.16
2023-01-19T00:22:06.100Z,99366.66
2023-01-19T00:24:39.042Z,99368.25
2023-01-19T00:27:14.958Z,99364.44
2023-01-19T00:29:47.748Z,99368.31
2023-01-19T00:32:17.373Z,99357.75
2023-01-19T00:34:49.566Z,99360.44
2023-01-19T00:37:25.778Z,99359.13
2023-01-19T00:39:57.536Z,99361.00
2023-01-19T00:42:44.736Z,99362.19
2023-01-19T00:45:19.090Z,99361.56
2023-01-19T00:48:09.253Z,99361.69
2023-01-19T00:50:39.140Z,99357.56
2023-01-19T00:53:10.944Z,99356.75
2023-01-19T00:55:42.871Z,99365.97
2023-01-19T00:58:15.284Z,99362.44
2023-01-19T01:00:45.305Z,99368.38
2023-01-19T01:03:18.503Z,99366.88
2023-01-19T01:05:54.444Z,99363.47
2023-01-19T01:08:21.314Z,99376.25
2023-01-19T01:10:48.863Z,99369.28
2023-01-19T01:13:27.494Z,99385.56
2023-01-19T01:16:04.368Z,99373.38
2023-01-19T01:18:34.119Z,99374.78
2023-01-19T01:21:07.603Z,99380.19
2023-01-19T01:23:42.920Z,99380.91
2023-01-19T01:26:13.886Z,99370.13
2023-01-19T01:28:45.073Z,99383.53
2023-01-19T01:31:15.256Z,99383.06
2023-01-19T01:33:48.637Z,99370.72
2023-01-19T01:36:21.812Z,99376.03
2023-01-19T01:38:54.486Z,99367.31
2023-01-19T01:41:30.203Z,99376.22
2023-01-19T01:44:06.405Z,99373.22
2023-01-19T01:46:38.401Z,99372.75
2023-01-19T01:49:10.700Z,99369.91
2023-01-19T01:51:49.084Z,99373.50
2023-01-19T01:54:30.761Z,99368.91
2023-01-19T01:57:10.194Z,99363.25
2023-01-19T01:59:45.558Z,99369.47
2023-01-19T02:02:33.662Z,99368.34
2023-01-19T02:05:13.439Z,99359.38
2023-01-19T02:08:10.865Z,99356.66
2023-01-19T02:10:57.195Z,99358.81
2023-01-19T02:13:25.696Z,99356.25
2023-01-19T02:15:54.410Z,99359.94
2023-01-19T02:18:25.027Z,99353.78
2023-01-19T02:21:14.880Z,99355.13
2023-01-19T02:23:44.532Z,99352.22
2023-01-19T02:26:25.444Z,99345.53
2023-01-19T02:28:58.625Z,99343.97
2023-01-19T02:31:29.040Z,99345.88
2023-01-19T02:34:00.135Z,99356.25
2023-01-19T02:36:39.070Z,99347.38
2023-01-19T02:39:09.668Z,99344.56
2023-01-19T02:41:54.186Z,99353.63
2023-01-19T02:44:25.658Z,99349.59
2023-01-19T02:46:58.612Z,99347.00
2023-01-19T02:49:34.383Z,99348.19
2023-01-19T02:52:07.898Z,99349.00
2023-01-19T02:54:40.831Z,99341.16
2023-01-19T02:57:15.880Z,99342.34
2023-01-19T02:59:55.179Z,99345.63
2023-01-19T03:02:34.651Z,99343.13
2023-01-19T03:05:14.133Z,99338.59
2023-01-19T03:07:59.594Z,99339.81
2023-01-19T03:10:36.696Z,99342.69
2023-01-19T03:13:13.208Z,99347.34
2023-01-19T03:15:48.132Z,99341.63
2023-01-19T03:18:21.066Z,99350.13
2023-01-19T03:20:54.665Z,99346.56
2023-01-19T03:23:33.538Z,99344.13
2023-01-19T03:26:03.844Z,99342.47
2023-01-19T03:28:33.823Z,99337.97
2023-01-19T03:31:12.842Z,99347.03
2023-01-19T03:33:46.244Z,99352.34
2023-01-19T03:36:55.443Z,99352.34
2023-01-19T03:39:24.194Z,99349.75
2023-01-19T03:41:59.620Z,99346.41
2023-01-19T03:44:32.436Z,99345.28
2023-01-19T03:47:03.060Z,99346.13
2023-01-19T03:49:31.676Z,99347.47
2023-01-19T03:52:06.351Z,99353.66
2023-01-19T03:54:33.202Z,99350.63
2023-01-19T03:57:03.743Z,99348.91
2023-01-19T03:59:39.999Z,99362.72
2023-01-19T04:02:15.169Z,99359.66
2023-01-19T04:04:45.953Z,99363.38
2023-01-19T04:07:13.228Z,99363.31
2023-01-19T04:09:42.865Z,99362.19
2023-01-19T04:12:12.686Z,99361.47
2023-01-19T04:14:43.718Z,99361.72
2023-01-19T04:17:14.100Z,99367.03
2023-01-19T04:19:48.039Z,99355.31
2023-01-19T04:22:18.240Z,99361.28
2023-01-19T04:24:51.184Z,99359.38
2023-01-19T04:27:26.915Z,99348.94
2023-01-19T04:30:03.762Z,99345.13
2023-01-19T04:32:41.208Z,99353.53
2023-01-19T04:35:13.767Z,99358.84
2023-01-19T04:37:45.572Z,99353.38
2023-01-19T04:40:24.916Z,99352.50
2023-01-19T04:42:58.137Z,99356.94
2023-01-19T04:45:28.484Z,99354.59
2023-01-19T04:48:00.606Z,99364.00
2023-01-19T04:50:27.987Z,99362.06
2023-01-19T04:53:01.244Z,99356.78
2023-01-19T04:55:31.637Z,99355.34
2023-01-19T04:58:07.186Z,99368.34
2023-01-19T05:00:39.874Z,99368.22
2023-01-19T05:03:12.491Z,99365.09
2023-01-19T05:05:45.025Z,99372.31
2023-01-19T05:08:18.994Z,99376.34
2023-01-19T05:10:48.980Z,99374.91
2023-01-19T05:13:19.661Z,99377.53
2023-01-19T05:15:49.047Z,99377.75
2023-01-19T05:18:19.201Z,99373.84
2023-01-19T05:20:49.774Z,99385.28
2023-01-19T05:23:21.781Z,99379.50
2023-01-19T05:25:52.655Z,99377.19
2023-01-19T05:28:21.284Z,99379.47
2023-01-19T05:30:52.950Z,99370.59
2023-01-19T05:33:25.493Z,99380.06
2023-01-19T05:35:55.585Z,99381.53
2023-01-19T05:38:34.743Z,99383.50
2023-01-19T05:41:08.433Z,99381.16
2023-01-19T05:43:41.733Z,99377.06
2023-01-19T05:46:16.284Z,99375.75
2023-01-19T05:48:46.249Z,99368.34
2023-01-19T05:51:18.906Z,99369.81
2023-01-19T05:53:49.605Z,99370.06
2023-01-19T05:56:16.834Z,99371.97
2023-01-19T05:58:43.723Z,99374.44
2023-01-19T06:01:19.097Z,99372.72
2023-01-19T06:03:47.468Z,99376.34
2023-01-19T06:06:24.220Z,99370.75
2023-01-19T06:09:00.115Z,99368.16
2023-01-19T06:11:26.781Z,99377.69
2023-01-19T06:13:59.260Z,99373.88
2023-01-19T06:16:29.410Z,99369.25
2023-01-19T06:19:04.937Z,99377.16
2023-01-19T06:21:37.822Z,99371.66
2023-01-19T06:24:07.892Z,99376.63
2023-01-19T06:26:41.173Z,99382.16
2023-01-19T06:29:14.713Z,99379.38
2023-01-19T06:31:42.287Z,99386.78
2023-01-19T06:34:15.211Z,99388.84
2023-01-19T06:36:47.631Z,99392.44
2023-01-19T06:39:16.883Z,99393.38
2023-01-19T06:41:52.236Z,99394.75
2023-01-19T06:44:22.060Z,99400.28
2023-01-19T06:46:51.674Z,99396.19
2023-01-19T06:49:39.228Z,99407.34
2023-01-19T06:52:12.005Z,99401.56
2023-01-19T06:54:40.009Z,99402.88
2023-01-19T06:57:07.266Z,99414.84
2023-01-19T06:59:37.201Z,99414.28
2023-01-19T07:02:26.178Z,99426.78
2023-01-19T07:04:56.402Z,99423.94
2023-01-19T07:07:24.907Z,99432.47
2023-01-19T07:09:57.363Z,99437.53
2023-01-19T07:12:33.601Z,99432.72
2023-01-19T07:15:06.216Z,99449.22
2023-01-19T07:17:38.920Z,99454.41
2023-01-19T07:20:14.688Z,99455.47
2023-01-19T07:22:45.746Z,99460.88
2023-01-19T07:25:19.903Z,99454.78
2023-01-19T07:27:46.879Z,99466.00
2023-01-19T07:30:22.263Z,99473.94
2023-01-19T07:32:51.671Z,99476.56
2023-01-19T07:35:22.006Z,99481.72
2023-01-19T07:37:52.376Z,99486.06
2023-01-19T07:40:25.330Z,99490.19
2023-01-19T07:42:55.496Z,99485.25
2023-01-19T07:45:32.002Z,99489.78
2023-01-19T07:48:02.159Z,99493.19
2023-01-19T07:50:30.030Z,99490.19
2023-01-19T07:52:57.186Z,99492.78
2023-01-19T07:55:29.750Z,99494.00
2023-01-19T07:57:59.336Z,99498.97
2023-01-19T08:00:32.295Z,99511.00
2023-01-19T08:03:05.803Z,99510.34
2023-01-19T08:05:38.898Z,99506.19
2023-01-19T08:08:12.718Z,99516.41
2023-01-19T08:10:39.728Z,99519.81
2023-01-19T08:13:09.322Z,99528.09
2023-01-19T08:15:42.359Z,99528.75
2023-01-19T08:18:15.206Z,99520.81
2023-01-19T08:20:45.082Z,99522.06
2023-01-19T08:23:18.315Z,99521.03
2023-01-19T08:25:48.571Z,99524.31
2023-01-19T08:28:18.248Z,99522.16
2023-01-19T08:30:54.183Z,99534.84
2023-01-19T08:33:27.132Z,99534.78
2023-01-19T08:36:02.908Z,99534.72
2023-01-19T08:38:32.736Z,99532.69
2023-01-19T08:41:05.416Z,99539.63
2023-01-19T08:43:35.479Z,99540.38
2023-01-19T08:46:05.779Z,99543.66
2023-01-19T08:48:32.782Z,99554.84
2023-01-19T08:51:04.859Z,99551.06
2023-01-19T08:53:40.526Z,99556.47
2023-01-19T08:56:12.717Z,99551.38
2023-01-19T08:58:41.107Z,99559.38
2023-01-19T09:01:14.504Z,99570.28
2023-01-19T09:03:45.007Z,99575.41
2023-01-19T09:06:17.179Z,99577.88
2023-01-19T09:08:53.353Z,99570.25
2023-01-19T09:11:20.060Z,99573.53
2023-01-19T09:13:54.269Z,99579.88
2023-01-19T09:16:25.112Z,99577.75
2023-01-19T09:18:58.630Z,99574.63
2023-01-19T09:21:27.533Z,99573.34
2023-01-19T09:23:59.715Z,99583.34
2023-01-19T09:26:33.298Z,99588.09
2023-01-19T09:29:07.132Z,99593.66
2023-01-19T09:31:37.794Z,99593.25
2023-01-19T09:34:10.782Z,99598.00
2023-01-19T09:36:39.619Z,99598.97
2023-01-19T09:39:12.120Z,99600.94
2023-01-19T09:41:46.760Z,99607.09
2023-01-19T09:44:20.288Z,99610.72
2023-01-19T09:46:56.523Z,99614.66
2023-01-19T09:49:35.416Z,99614.66
2023-01-19T09:52:08.954Z,99620.63
2023-01-19T09:54:45.847Z,99627.09
2023-01-19T09:57:15.262Z,99623.31
2023-01-19T09:59:47.906Z,99628.38
2023-01-19T10:02:24.397Z,99630.44
2023-01-19T10:04:59.401Z,99634.72
2023-01-19T10:07:41.094Z,99637.69
2023-01-19T10:10:21.332Z,99645.53
2023-01-19T10:13:06.744Z,99643.19
2023-01-19T10:15:46.841Z,99638.97
2023-01-19T10:18:20.215Z,99634.75
2023-01-19T10:20:55.512Z,99640.16
2023-01-19T10:23:38.239Z,99638.56
2023-01-19T10:26:19.209Z,99638.72
2023-01-19T10:28:50.865Z,99629.06
2023-01-19T10:31:21.876Z,99635.28
2023-01-19T10:33:57.373Z,99635.09
2023-01-19T10:36:51.135Z,99642.19
2023-01-19T10:39:23.114Z,99638.19
2023-01-19T10:41:53.715Z,99637.28
2023-01-19T10:44:27.618Z,99633.63
2023-01-19T10:47:02.147Z,99642.28
2023-01-19T10:49:35.252Z,99644.97
2023-01-19T10:52:08.604Z,99647.22
2023-01-19T10:54:43.641Z,99660.75
2023-01-19T10:57:13.516Z,99652.56
2023-01-19T10:59:53.222Z,99667.03
2023-01-19T11:02:27.694Z,99658.56
2023-01-19T11:05:02.664Z,99665.09
2023-01-19T11:07:33.603Z,99665.28
2023-01-19T11:10:15.258Z,99668.03
2023-01-19T11:12:46.296Z,99659.78
2023-01-19T11:15:24.606Z,99663.16
2023-01-19T11:17:54.394Z,99664.38
2023-01-19T11:20:23.187Z,99660.69
2023-01-19T11:23:05.023Z,99662.09
2023-01-19T11:25:41.443Z,99662.31
2023-01-19T11:28:17.885Z,99660.91
2023-01-19T11:31:00.503Z,99665.56
2023-01-19T11:33:37.162Z,99661.53
2023-01-19T11:36:07.530Z,99663.25
2023-01-19T11:38:43.863Z,99667.66
2023-01-19T11:41:31.835Z,99665.16
2023-01-19T11:44:03.521Z,99664.94
2023-01-19T11:46:36.337Z,99674.72
2023-01-19T11:49:08.369Z,99675.69
2023-01-19T11:51:39.673Z,99675.00
2023-01-19T11:54:21.813Z,99674.63
2023-01-19T11:56:52.538Z,99671.34
2023-01-19T11:59:25.795Z,99676.59
2023-01-19T12:02:00.602Z,99674.09
2023-01-19T12:04:39.447Z,99676.09
2023-01-19T12:07:10.697Z,99677.47
2023-01-19T12:09:53.208Z,99682.94
2023-01-19T12:12:43.046Z,99687.69
2023-01-19T12:15:41.386Z,99680.56
2023-01-19T12:18:18.795Z,99683.25
2023-01-19T12:20:58.992Z,99682.03
2023-01-19T12:23:42.165Z,99679.75
2023-01-19T12:26:29.053Z,99678.66
2023-01-19T12:29:07.308Z,99687.25
2023-01-19T12:31:35.758Z,99690.59
2023-01-19T12:34:24.101Z,99701.22
2023-01-19T12:36:52.225Z,99695.69
2023-01-19T12:39:23.339Z,99692.84
2023-01-19T12:42:06.298Z,99702.94
2023-01-19T12:44:34.446Z,99699.78
2023-01-19T12:47:13.540Z,99692.19
2023-01-19T12:49:49.018Z,99702.53
2023-01-19T12:52:22.028Z,99694.78
2023-01-19T12:55:07.019Z,99712.72
2023-01-19T12:57:41.136Z,99705.38
2023-01-19T13:00:34.464Z,99708.47
2023-01-19T13:03:03.915Z,99721.41
2023-01-19T13:05:36.221Z,99718.88
2023-01-19T13:08:03.123Z,99718.50
2023-01-19T13:10:48.404Z,99718.50
2023-01-19T13:13:24.934Z,99721.78
2023-01-19T13:15:55.936Z,99723.44
2023-01-19T13:18:35.319Z,99730.03
2023-01-19T13:21:06.064Z,99727.91
2023-01-19T13:23:39.561Z,99736.91
2023-01-19T13:26:14.217Z,99732.69
2023-01-19T13:28:49.815Z,99736.34
2023-01-19T13:31:24.000Z,99733.38
2023-01-19T13:34:03.030Z,99737.44
2023-01-19T13:36:36.768Z,99746.56
2023-01-19T13:39:06.241Z,99747.88
2023-01-19T13:41:38.364Z,99743.47
2023-01-19T13:44:18.627Z,99745.50
2023-01-19T13:46:54.157Z,99756.22
2023-01-19T13:49:33.997Z,99758.19
2023-01-19T13:52:23.847Z,99750.75
2023-01-19T13:54:57.635Z,99749.72
2023-01-19T13:57:32.289Z,99745.63
2023-01-19T14:00:08.353Z,99748.16
2023-01-19T14:02:36.383Z,99749.94
2023-01-19T14:05:35.130Z,99762.16
2023-01-19T14:08:14.613Z,99774.94
2023-01-19T14:10:49.602Z,99773.25
2023-01-19T14:13:21.310Z,99776.72
2023-01-19T14:15:57.818Z,99774.00
2023-01-19T14:18:37.517Z,99779.00
2023-01-19T14:21:18.928Z,99773.19
2023-01-19T14:23:57.942Z,99775.38
2023-01-19T14:26:43.557Z,99780.22
2023-01-19T14:29:13.308Z,99780.56
2023-01-19T14:31:53.075Z,99788.00
2023-01-19T14:34:52.102Z,99792.59
2023-01-19T14:37:34.521Z,99788.84
2023-01-19T14:40:16.453Z,99794.97
2023-01-19T14:43:08.500Z,99803.59
2023-01-19T14:45:43.478Z,99804.41
2023-01-19T14:48:22.849Z,99812.28
2023-01-19T14:51:04.125Z,99815.22
2023-01-19T14:53:35.109Z,99812.19
2023-01-19T14:56:04.675Z,99821.22
2023-01-19T14:58:35.899Z,99820.25
2023-01-19T15:01:11.604Z,99825.09
2023-01-19T15:03:45.699Z,99831.41
2023-01-19T15:06:16.977Z,99835.75
2023-01-19T15:08:50.765Z,99842.16
2023-01-19T15:11:27.092Z,99841.41
2023-01-19T15:14:00.546Z,99848.28
2023-01-19T15:16:35.526Z,99854.13
2023-01-19T15:19:03.338Z,99853.38
2023-01-19T15:21:36.175Z,99855.53
2023-01-19T15:24:06.563Z,99854.69
2023-01-19T15:26:33.953Z,99859.19
2023-01-19T15:29:03.460Z,99862.56
2023-01-19T15:31:36.658Z,99863.84
2023-01-19T15:34:03.678Z,99861.88
2023-01-19T15:36:33.076Z,99875.66
2023-01-19T15:39:03.988Z,99873.00
2023-01-19T15:41:33.878Z,99873.00
2023-01-19T15:44:02.050Z,99880.50
2023-01-19T15:46:31.530Z,99880.16
2023-01-19T15:49:05.678Z,99879.78
2023-01-19T15:51:35.460Z,99886.41
2023-01-19T15:54:09.198Z,99885.88
2023-01-19T15:56:38.696Z,99883.50
2023-01-19T15:59:08.047Z,99886.88
2023-01-19T16:01:36.691Z,99890.47
2023-01-19T16:04:04.333Z,99902.19
2023-01-19T16:06:31.811Z,99898.88
2023-01-19T16:09:01.776Z,99913.34
2023-01-19T16:11:29.615Z,99906.00
2023-01-19T16:13:57.272Z,99912.50
2023-01-19T16:16:25.164Z,99917.19
2023-01-19T16:18:52.677Z,99918.31
2023-01-19T16:21:25.639Z,99916.53
2023-01-19T16:23:55.043Z,99919.69
2023-01-19T16:26:37.014Z,99918.28
2023-01-19T16:29:09.872Z,99924.56
2023-01-19T16:31:40.495Z,99922.78
2023-01-19T16:34:07.802Z,99945.94
2023-01-19T16:36:35.890Z,99942.47
2023-01-19T16:39:06.912Z,99946.44
2023-01-19T16:41:34.458Z,99953.94
2023-01-19T16:44:01.139Z,99959.50
2023-01-19T16:46:35.127Z,99955.25
2023-01-19T16:49:03.121Z,99957.03
2023-01-19T16:51:31.980Z,99965.44
2023-01-19T16:54:01.721Z,99966.53
2023-01-19T16:56:29.190Z,99966.91
2023-01-19T16:59:00.859Z,99955.34
2023-01-19T17:01:34.169Z,99972.00
2023-01-19T17:04:01.050Z,99973.75
2023-01-19T17:06:41.068Z,99974.13
2023-01-19T17:09:09.573Z,99982.69
2023-01-19T17:11:40.549Z,99986.28
2023-01-19T17:14:13.387Z,99991.00
2023-01-19T17:16:44.275Z,99993.03
2023-01-19T17:19:17.255Z,99992.88
2023-01-19T17:21:48.726Z,99992.84
2023-01-19T17:24:15.992Z,99997.00
2023-01-19T17:26:46.476Z,99999.53
2023-01-19T17:29:13.300Z,100008.44
2023-01-19T17:31:43.048Z,100007.66
2023-01-19T17:34:16.574Z,100014.44
2023-01-19T17:36:43.390Z,100009.91
2023-01-19T17:39:18.674Z,100014.13
2023-01-19T17:41:50.611Z,100019.91
2023-01-19T17:44:17.257Z,100023.41
2023-01-19T17:46:47.338Z,100022.09
2023-01-19T17:49:21.077Z,100031.19
2023-01-19T17:51:51.898Z,100032.03
2023-01-19T17:54:19.133Z,100038.34
2023-01-19T17:56:47.074Z,100036.47
2023-01-19T17:59:13.463Z,100047.09
2023-01-19T18:01:41.450Z,100041.13
2023-01-19T18:04:08.943Z,100044.66
2023-01-19T18:06:35.810Z,100050.44
2023-01-19T18:09:02.223Z,100050.91
2023-01-19T18:11:29.649Z,100050.25
2023-01-19T18:13:56.206Z,100057.22
2023-01-19T18:16:37.947Z,100054.94
2023-01-19T18:19:04.611Z,100057.91
2023-01-19T18:21:43.249Z,100057.91
2023-01-19T18:24:09.615Z,100059.38
2023-01-19T18:26:44.281Z,100062.22
2023-01-19T18:29:10.787Z,100072.81
2023-01-19T18:31:38.413Z,100076.78
2023-01-19T18:34:05.444Z,100074.13
2023-01-19T18:36:52.119Z,100075.28
2023-01-19T18:39:18.472Z,100079.78
2023-01-19T18:41:44.859Z,100075.78
2023-01-19T18:44:12.223Z,100076.94
2023-01-19T18:46:40.195Z,100075.47
2023-01-19T18:49:07.594Z,100082.75
2023-01-19T18:51:34.181Z,100083.03
2023-01-19T18:54:01.082Z,100079.13
2023-01-19T18:56:27.804Z,100080.75
2023-01-19T18:58:55.057Z,100073.44
2023-01-19T19:01:32.258Z,100075.31
2023-01-19T19:03:59.096Z,100079.13
2023-01-19T19:06:27.375Z,100086.44
2023-01-19T19:08:55.096Z,100080.13
2023-01-19T19:11:23.004Z,100083.09
2023-01-19T19:13:53.649Z,100090.88
2023-01-19T19:16:20.328Z,100082.75
2023-01-19T19:18:50.104Z,100085.25
2023-01-19T19:21:18.220Z,100092.03
2023-01-19T19:23:49.222Z,100088.41
2023-01-19T19:26:15.650Z,100089.03
2023-01-19T19:28:42.259Z,100096.84
2023-01-19T19:31:12.945Z,100096.91
2023-01-19T19:33:39.733Z,100095.34
2023-01-19T19:36:07.149Z,100091.97
2023-01-19T19:38:34.841Z,100097.28
2023-01-19T19:41:04.793Z,100101.16
2023-01-19T19:43:32.865Z,100100.94
2023-01-19T19:46:00.405Z,100102.88
2023-01-19T19:48:27.683Z,100105.88
2023-01-19T19:50:55.410Z,100110.38
2023-01-19T19:53:23.033Z,100110.34
2023-01-19T19:55:57.209Z,100105.25
2023-01-19T19:58:25.131Z,100111.63
2023-01-19T20:00:53.552Z,100108.38
2023-01-19T20:03:20.210Z,100106.50
2023-01-19T20:05:47.179Z,100103.16
2023-01-19T20:08:14.209Z,100110.09
2023-01-19T20:10:40.772Z,100114.28
2023-01-19T20:13:10.915Z,100107.31
2023-01-19T20:15:38.603Z,100107.66
2023-01-19T20:18:06.327Z,100115.00
2023-01-19T20:20:33.790Z,100117.78
2023-01-19T20:23:01.356Z,100123.81
2023-01-19T20:25:28.748Z,100123.41
2023-01-19T20:27:55.682Z,100130.00
2023-01-19T20:30:22.778Z,100131.03
2023-01-19T20:32:51.333Z,100130.03
2023-01-19T20:35:18.401Z,100142.94
2023-01-19T20:37:45.144Z,100144.59
2023-01-19T20:40:11.765Z,100148.56
2023-01-19T20:42:41.356Z,100154.88
2023-01-19T20:45:08.708Z,100148.66
2023-01-19T20:47:35.455Z,100149.63
2023-01-19T20:50:03.136Z,100151.50
2023-01-19T20:52:30.559Z,100158.91
2023-01-19T20:54:57.570Z,100156.19
2023-01-19T20:57:24.481Z,100153.97
2023-01-19T20:59:51.109Z,100164.53
2023-01-19T21:02:17.847Z,100166.09
2023-01-19T21:04:44.571Z,100175.44
2023-01-19T21:07:11.456Z,100171.97
2023-01-19T21:09:39.584Z,100178.03
2023-01-19T21:12:07.963Z,100179.56
2023-01-19T21:14:36.843Z,100189.78
2023-01-19T21:17:03.824Z,100193.06
2023-01-19T21:19:39.255Z,100203.19
2023-01-19T21:22:17.411Z,100197.84
2023-01-19T21:24:49.877Z,100201.53
2023-01-19T21:27:28.640Z,100210.56
2023-01-19T21:30:00.379Z,100216.19
2023-01-19T21:32:29.940Z,100222.78
2023-01-19T21:35:02.895Z,100230.00
2023-01-19T21:37:36.028Z,100218.38
2023-01-19T21:40:12.443Z,100230.72
2023-01-19T21:42:44.818Z,100227.53
2023-01-19T21:45:20.023Z,100231.84
2023-01-19T21:47:49.655Z,100236.00
2023-01-19T21:50:19.839Z,100240.88
2023-01-19T21:52:46.445Z,100251.16
2023-01-19T21:55:18.061Z,100252.22
2023-01-19T21:57:54.203Z,100255.94
2023-01-19T22:00:27.466Z,100268.78
2023-01-19T22:03:04.112Z,100263.31
2023-01-19T22:05:36.760Z,100258.72
2023-01-19T22:08:04.468Z,100262.16
2023-01-19T22:10:43.901Z,100271.44
2023-01-19T22:13:16.969Z,100270.78
2023-01-19T22:15:53.203Z,100285.94
2023-01-19T22:18:21.522Z,100280.91
2023-01-19T22:20:54.859Z,100288.13
2023-01-19T22:23:31.708Z,100284.22
2023-01-19T22:26:05.275Z,100286.25
2023-01-19T22:28:32.246Z,100290.53
2023-01-19T22:31:11.627Z,100287.53
2023-01-19T22:33:42.932Z,100299.69
2023-01-19T22:36:25.005Z,100296.53
2023-01-19T22:38:58.930Z,100300.41
2023-01-19T22:41:32.590Z,100307.63
2023-01-19T22:44:04.738Z,100310.22
2023-01-19T22:46:32.676Z,100309.31
2023-01-19T22:49:04.898Z,100312.75
2023-01-19T22:51:33.185Z,100311.72
2023-01-19T22:54:01.168Z,100312.94
2023-01-19T22:56:32.084Z,100315.63
2023-01-19T22:59:08.568Z,100315.75
2023-01-19T23:01:35.620Z,100326.22
2023-01-19T23:04:05.589Z,100327.19
2023-01-19T23:06:36.523Z,100329.47
2023-01-19T23:09:11.010Z,100337.34
2023-01-19T23:11:44.236Z,100343.69
2023-01-19T23:14:17.932Z,100340.88
2023-01-19T23:16:48.069Z,100337.09
2023-01-19T23:19:20.899Z,100339.38
2023-01-19T23:21:56.601Z,100340.22
2023-01-19T23:24:26.991Z,100346.09
2023-01-19T23:26:59.021Z,100345.59
2023-01-19T23:29:31.254Z,100351.44
2023-01-19T23:32:01.143Z,100346.56
2023-01-19T23:34:30.617Z,100356.53
2023-01-19T23:37:01.124Z,100353.63
2023-01-19T23:39:29.511Z,100350.47
2023-01-19T23:42:03.658Z,100357.53
2023-01-19T23:44:35.992Z,100358.78
2023-01-19T23:47:04.217Z,100356.22
2023-01-19T23:49:33.679Z,100363.78
2023-01-19T23:52:06.449Z,100357.88
2023-01-19T23:54:37.239Z,100359.41
2023-01-19T23:57:10.134Z,100363.25
2023-01-19T23:59:43.867Z,100370.81
